Tiempo atmosférico en la estación meteorológica de Segovia, Segovia (1005 m.)



Fecha
DESCASC
Temp. máxima en grados centígrados (hora)
DESCASC
Temp. mínima en grados centígrados (hora)
DESCASC
Temp. media en grados centígrados
DESCASC
Racha de viento máxima en m/sg (hora)
DESCASC
Velocidad máxima media en intervalos de 10 minutos(hora)
DESCASC
Precipitaciones diarias en mm
DESCASC
Precipitaciones de 00:00 a 06:00 en mm
DESCASC
Precipitaciones de 06:00 a 12:00 en mm
DESCASC
Precipitaciones de 12:00 a 18:00 en mm
DESCASC
Precipitaciones de 18:00 a 24:00 en mm
DESCASC
22-04-2019 16.2 (17:50) 7.2 (03:40) 11.7 9.17 (21:50) 6.11 (22:00) 0.2 0 0 0 0.2
21-04-2019 12.3 (00:10) 4.4 (08:30) 8.4 12.22 (14:00) 6.94 (14:30) 0 0 0 0 0
20-04-2019 19.7 (16:50) 7.6 (08:30) 13.7 15 (03:30) 9.72 (03:30) 0 0 0 0 0
19-04-2019 11.7 (21:00) 5.3 (08:20) 8.5 13.06 (12:10) 8.06 (11:50) 1.8 0.4 0 0.8 0.6
18-04-2019 13.4 (00:20) 7.2 (00:00) 10.3 17.5 (01:50) 9.72 (02:40) 11 1.6 2.2 4.2 3
17-04-2019 19.9 (18:30) 11.8 (00:00) 15.8 20.83 (19:30) 13.61 (19:30) 3.2 0 0 0 3.2
16-04-2019 19.2 (16:50) 5.4 (00:00) 12.3 13.33 (21:20) 8.61 (21:50) 0.2 0 0.2 0 0
15-04-2019 20.9 (15:50) 8.5 (00:00) 14.7 16.94 (17:00) 12.22 (17:00) 0.4 0 0 0 0.4
14-04-2019 19.2 (17:20) 8.7 (00:00) 14 6.39 (15:30) 3.89 (15:50) 0 0 0 0 0
13-04-2019 18 (18:30) 3.6 (00:00) 10.8 5.83 (16:30) 3.33 (18:10) 0 0 0 0 0
12-04-2019 13.3 (18:00) 0.3 (00:00) 6.8 6.39 (17:10) 3.06 (00:50) 0 0 0 0 0
11-04-2019 10.9 (16:00) 0.7 (00:00) 5.8 7.78 (16:10) 3.89 (16:30) 0 0 0 0 0
10-04-2019 9.1 (16:20) 3.3 (00:00) 6.2 11.11 (09:50) 7.22 (09:10) 2.8 0.4 1.2 1.2 0
09-04-2019 9.2 (18:30) 3.6 (00:00) 6.4 16.67 (13:20) 10.83 (13:20) 2.6 0 0.2 1.6 0.8
08-04-2019 12 (16:20) 4.5 (00:00) 8.3 13.33 (21:00) 6.94 (21:00) 5 1.2 3.4 0.2 0.2
07-04-2019 9.7 (15:10) 0.6 (00:00) 5.1 9.72 (03:30) 6.67 (03:30) 5.2 1 0 0.4 3.8
06-04-2019 7.3 (16:00) 0.8 (00:00) 4.1 19.44 (16:10) 13.61 (16:20) 2 1 0 0.2 0.8
05-04-2019 6.5 (09:50) 0.2 (00:00) 3.4 10 (17:40) 6.67 (17:50) 8.6 0.2 0 5.4 3
04-04-2019 12 (17:30) -3.5 (-00:0) 4.3 9.44 (17:20) 5.28 (18:00) 0 0 0 0 0
03-04-2019 -- (--) -- (--) -- -- (--) -- (--) -- 0 -- -- 0
02-04-2019 16.7 (17:50) 6.2 (00:00) 11.5 10 (18:10) 6.11 (17:50) 0 0 0 0 0
01-04-2019 15.7 (17:40) 6.4 (00:00) 11 10.83 (18:30) 6.94 (18:30) 0 0 0 0 0
31-03-2019 15.4 (14:50) 6.2 (00:00) 10.8 8.06 (13:50) 5 (01:30) 0 0 0 0 0
30-03-2019 17.6 (16:20) 5 (00:00) 11.3 12.78 (00:50) 8.61 (02:30) 0 0 0 0 0
29-03-2019 16.3 (13:20) 7.3 (00:00) 11.8 11.39 (11:10) 7.78 (11:10) 0 0 0 0 0
28-03-2019 17.6 (16:20) 1.7 (00:00) 9.7 6.67 (12:30) 4.17 (20:10) 0 0 0 0 0
27-03-2019 17.6 (16:20) 1.1 (00:00) 9.4 7.5 (17:10) 4.44 (21:50) 0 0 0 0 0
26-03-2019 18.8 (15:10) -2.1 (-00:0) 8.3 11.39 (18:00) 7.5 (16:20) 0 0 0 0 0
25-03-2019 16.6 (15:20) 3.9 (00:00) 10.3 10.83 (00:30) 5.56 (01:20) 0 0 0 0 0

Gráficas

Temp. máximas Temp. mínimas Temp. medias Precipitaciones Rachas de viento máximas Velocidades máximas media en intervalos de 10 minutos

Datos horarios

Fecha y hora oficial Temperatura (ºC) Velocidad del viento (km/h) Dirección del viento Racha (km/h) Dirección de racha Precipitación (mm) Presión (hPa) Tendencia (hPa) Humedad (%)
2019-04-23 23:00:00 3.7 10 Sudoeste 22 Sudoeste 0 887.9 2.7 87
2019-04-23 22:00:00 3.6 14 Sudoeste 27 Sudoeste 0 887.4 2.4 87
2019-04-23 21:00:00 3.9 24 Sudoeste 46 Oeste 0.2 886.5 2 89
2019-04-23 20:00:00 4.6 10 Sudeste 23 Sur 0.6 885.2 1.3 85
2019-04-23 19:00:00 4.6 9 Sudeste 19 Sur 0.4 885 1.3 83
2019-04-23 18:00:00 4.7 7 Oeste 34 Sudoeste 1.2 884.5 1 84
2019-04-23 17:00:00 6.3 22 Sudoeste 38 Oeste 0 883.9 0 77
2019-04-23 16:00:00 7.3 22 Oeste 44 Oeste 0 883.7 -0.4 70
2019-04-23 15:00:00 9.1 8 Sudeste 15 Oeste 0 883.5 -0.4 68
2019-04-23 14:00:00 5.9 9 Noroeste 22 Oeste 0.8 883.9 0.8 85
2019-04-23 13:00:00 5.4 15 Oeste 26 Oeste 0.4 884.1 1.2 89
2019-04-23 12:00:00 6.1 14 Oeste 24 Oeste 0 883.9 1.4 85
2019-04-23 11:00:00 5.9 16 Oeste 26 Oeste 0.6 883.1 0.9 89
2019-04-23 10:00:00 6.3 5 Noroeste 15 Oeste 0 882.9 0.9 90
2019-04-23 09:00:00 5.9 11 Oeste 35 Oeste 0 882.5 0.2 91
2019-04-23 08:00:00 8.9 24 Sudoeste 33 Sudoeste 0 882.2 -0.5 73
2019-04-23 07:00:00 9.4 12 Sur 32 Sudoeste 0 882 -1 65
2019-04-23 06:00:00 9.8 10 Sur 34 Sudoeste 0 882.3 -1.9 66
2019-04-23 05:00:00 10.1 12 Sudoeste 31 Sudoeste 0 882.7 -1.7 65
2019-04-23 04:00:00 9.9 15 Sudeste 31 Sur 0 883 -1.6 65
2019-04-23 03:00:00 10.2 14 Sudoeste 24 Sur 0.2 884.2 -0.7 74
2019-04-23 02:00:00 10.9 14 Sur 23 Sur 0 884.4 -1 69
2019-04-23 01:00:00 10.1 8 Sur 14 Sudeste 0 884.6 -0.9 72
2019-04-23 00:00:00 10.3 11 Sudeste 22 Este 0.2 884.9 -0.3 77
2019-04-22 23:00:00 11 6 Este 27 Sur 0 885.4 -0.1 75
2019-04-22 22:00:00 10.9 22 Sur 33 Sudoeste 0 885.5 -0.2 74
2019-04-22 21:00:00 12.9 7 Sur 10 Sudoeste 0 885.2 -1.1 50
2019-04-22 20:00:00 14.8 6 Sudoeste 11 Oeste 0 885.5 -1.1 44
2019-04-22 19:00:00 15.8 7 Sudoeste 20 Oeste 0 885.7 -1.7 40
2019-04-22 18:00:00 15.5 14 Oeste 23 Oeste 0 886.3 -1.9 44
2019-04-22 17:00:00 15.8 9 Oeste 24 Oeste 0 886.6 -2.4 46
2019-04-22 16:00:00 15 7 Sudoeste 18 Sudoeste 0 887.4 -2.5 51
2019-04-22 15:00:00 14 10 Sudoeste 20 Sudoeste 0 888.2 -2.4 51
2019-04-22 14:00:00 12.5 6 Sur 17 Oeste 0 889 -1.7 56
2019-04-22 13:00:00 11 5 Sudoeste 12 Sudoeste 0 889.9 -0.7 60
2019-04-22 12:00:00 9.4 8 Oeste 15 Noroeste 0 890.6 0 65
2019-04-22 11:00:00 9.2 7 Oeste 13 Sudoeste 0 890.7 -0.1 72
2019-04-22 10:00:00 8.7 9 Oeste 14 Oeste 0 890.6 -0.1 73
2019-04-22 09:00:00 7.7 5 Sudeste 9 Sudoeste 0 890.6 -0.7 80
2019-04-22 08:00:00 7.3 5 Sur 12 Sudoeste 0 890.8 -1.1 80
2019-04-22 07:00:00 7.2 6 Sudeste 10 Sudoeste 0 890.7 -1.8 78
2019-04-22 06:00:00 7.3 7 Sur 11 Sur 0 891.3 -1.9 80
2019-04-22 05:00:00 7.4 6 Sur 12 Sur 0 891.9 -2 78
2019-04-22 04:00:00 7.3 9 Sudoeste 12 Sudoeste 0 892.5 -1.9 78
2019-04-22 03:00:00 7.5 8 Sur 12 Sudoeste 0 893.2 -1.5 79
2019-04-22 02:00:00 7.8 4 Este 14 Nordeste 0 893.9 -1.2 73
2019-04-22 01:00:00 8.2 8 Nordeste 14 Nordeste 0 894.4 -0.5 71
2019-04-22 00:00:00 8.7 9 Nordeste 18 Nordeste 0 894.7 -0.1 66
2019-04-21 23:00:00 8.8 10 Nordeste 18 Nordeste 0 895.1 0.1 66
2019-04-21 22:00:00 9 8 Nordeste 20 Nordeste 0 894.9 -0.2 66
2019-04-21 21:00:00 9.3 12 Este 26 Nordeste 0 894.8 -0.5 62
2019-04-21 20:00:00 9.9 20 Nordeste 35 Nordeste 0 895 -0.8 59
2019-04-21 19:00:00 10.6 22 Nordeste 37 Nordeste 0 895.1 -1.3 59
2019-04-21 18:00:00 11.5 23 Nordeste 36 Nordeste 0 895.3 -1.4 57
2019-04-21 17:00:00 11.8 20 Nordeste 34 Este 0 895.8 -1.2 57
2019-04-21 16:00:00 11 24 Este 41 Nordeste 0 896.4 -1.3 58
2019-04-21 15:00:00 10.8 24 Nordeste 41 Nordeste 0 896.7 -1.5 63
2019-04-21 14:00:00 11.2 24 Nordeste 44 Nordeste 0 897 -1.6 61
2019-04-21 13:00:00 10.6 19 Nordeste 35 Nordeste 0 897.7 -1.1 63
2019-04-21 12:00:00 10.5 17 Nordeste 31 Nordeste 0 898.2 -1 67
2019-04-21 11:00:00 8.2 15 Nordeste 22 Nordeste 0 898.6 -0.6 76
2019-04-21 10:00:00 6.2 5 Oeste 6 Oeste 0 898.8 -0.3 86
2019-04-21 09:00:00 5 0 Calma 9 Oeste 0 899.2 0 85
2019-04-21 08:00:00 4.8 8 Oeste 11 Oeste 0 899.2 -0.5 84
2019-04-21 07:00:00 5.5 2 Nordeste 6 Oeste 0 899.1 -0.9 78
2019-04-21 06:00:00 6.4 4 Sudoeste 9 Sur 0 899.2 -1.6 74
2019-04-21 05:00:00 7.7 5 Nordeste 18 Este 0 899.7 -1.6 67
2019-04-21 04:00:00 8.6 14 Este 24 Este 0 900 -1.9 62
2019-04-21 03:00:00 9.2 8 Nordeste 19 Este 0 900.8 -0.9 60
2019-04-21 02:00:00 10.5 13 Este 20 Este 0 901.3 -0.3 52
2019-04-21 01:00:00 11.3 12 Nordeste 25 Este 0 901.9 0.6 51
2019-04-21 00:00:00 12.2 17 Este 30 Este 0 901.7 0.8 46
2019-04-20 23:00:00 12 10 Este 18 Este 0 901.6 1 49
2019-04-20 22:00:00 13.6 15 Este 35 Este 0 901.3 0.3 49
2019-04-20 21:00:00 14.6 23 Este 35 Este 0 900.9 0 46
2019-04-20 20:00:00 16.5 18 Este 31 Este 0 900.6 -0.6 40
2019-04-20 19:00:00 17.6 17 Este 35 Nordeste 0 901 -0.8 35
2019-04-20 18:00:00 19 15 Nordeste 39 Nordeste 0 900.9 -1.3 34
2019-04-20 17:00:00 19.2 20 Nordeste 35 Este 0 901.2 -1.5 34
2019-04-20 16:00:00 18.8 19 Este 31 Este 0 901.8 -1.3 33
2019-04-20 15:00:00 17.7 7 Nordeste 18 Oeste 0 902.2 -1.2 44
2019-04-20 14:00:00 15.4 12 Sudoeste 22 Sudoeste 0 902.7 -0.6 60
2019-04-20 13:00:00 15.4 15 Sudoeste 20 Sudoeste 0 903.1 -0.1 60
2019-04-20 12:00:00 14.1 11 Sudoeste 19 Sudoeste 0 903.4 0.3 64
2019-04-20 11:00:00 11.4 4 Sudoeste 9 Oeste 0 903.3 -0.1 71
2019-04-20 10:00:00 8.8 6 Sur 12 Sur 0 903.2 0.2 77
2019-04-20 09:00:00 7.9 6 Sudoeste 14 Sudoeste 0 903.1 -0.2 79
2019-04-20 08:00:00 8.2 3 Noroeste 10 Norte 0 903.4 0 72
2019-04-20 07:00:00 8.8 7 Nordeste 14 Norte 0 903 -1.5 68
2019-04-20 06:00:00 10.3 6 Este 35 Sudeste 0 903.3 -1.5 57
2019-04-20 05:00:00 11 15 Sudeste 31 Sudeste 0 903.4 -1.4 54
2019-04-20 04:00:00 11.2 14 Sudeste 54 Sudeste 0 904.5 -0.1 53
2019-04-20 03:00:00 11.7 32 Sudeste 53 Este 0 904.8 0 53
2019-04-20 02:00:00 11.5 5 Este 18 Nordeste 0 904.8 0.1 54
2019-04-20 01:00:00 11.4 6 Norte 23 Norte 0 904.6 0.7 56
2019-04-20 00:00:00 10.9 9 Norte 23 Norte 0 904.8 1.9 61
2019-04-19 23:00:00 11.2 13 Norte 31 Norte 0 904.7 2.8 64
2019-04-19 22:00:00 11.5 7 Norte 46 Este 0 903.9 1.8 65
2019-04-19 21:00:00 11.7 9 Norte 23 Norte 0 902.9 1.1 71
2019-04-19 20:00:00 10.8 4 Norte 22 Norte 0 901.9 0 77
2019-04-19 19:00:00 8.5 4 Sur 14 Nordeste 0.6 902.1 -0.3 93
2019-04-19 18:00:00 8.4 10 Nordeste 22 Norte 0.4 901.8 -0.5 92
2019-04-19 17:00:00 9.9 14 Nordeste 24 Nordeste 0.2 901.9 -0.3 81
2019-04-19 16:00:00 10.8 14 Nordeste 24 Nordeste 0 902.4 0.5 72
2019-04-19 15:00:00 10.5 6 Norte 20 Nordeste 0 902.3 1.1 80
2019-04-19 14:00:00 10.3 8 Este 15 Nordeste 0.2 902.2 1.3 69
2019-04-19 13:00:00 10.1 10 Norte 47 Este 0 901.9 1.5 69
2019-04-19 12:00:00 10 25 Este 42 Este 0 901.2 1.4 65
2019-04-19 11:00:00 9.7 21 Este 36 Sudeste 0 900.9 1.5 69
2019-04-19 10:00:00 8.4 13 Este 25 Sudeste 0 900.4 1.5 77
2019-04-19 09:00:00 5.9 4 Sudoeste 10 Sur 0 899.8 1.3 93
2019-04-19 08:00:00 5.7 6 Nordeste 12 Nordeste 0 899.4 1.1 91
2019-04-19 07:00:00 6.1 4 Nordeste 6 Norte 0 898.9 0.9 88
2019-04-19 06:00:00 6.2 3 Nordeste 9 Nordeste 0 898.5 0.1 89
2019-04-19 05:00:00 6.4 5 Nordeste 8 Nordeste 0 898.3 -0.1 91
2019-04-19 04:00:00 6.8 0 Calma 5 Noroeste 0 898 -0.2 87
2019-04-19 03:00:00 7.1 6 Nordeste 11 Nordeste 0 898.4 0 90
2019-04-19 02:00:00 6.8 5 Sudeste 12 Sudoeste 0 898.4 0 89
2019-04-19 01:00:00 7 7 Sur 14 Sur 0.4 898.2 0.2 89
2019-04-19 00:00:00 7.2 9 Sur 12 Sur 0.8 898.4 0.8 91
2019-04-18 23:00:00 7.7 8 Sudoeste 10 Sudoeste 0.4 898.4 1 94
2019-04-18 22:00:00 8 4 Oeste 8 Sudeste 0.8 898 0.6 92
2019-04-18 21:00:00 8.5 7 Este 9 Este 0.6 897.6 0.4 86
2019-04-18 20:00:00 9.1 4 Oeste 8 Noroeste 0 897.4 0.2 87
2019-04-18 19:00:00 9 3 Oeste 10 Oeste 0.4 897.4 -0.1 85
2019-04-18 18:00:00 8.7 3 Este 12 Nordeste 3.4 897.2 -0.3 88
2019-04-18 17:00:00 9.9 5 Norte 17 Noroeste 0 897.2 -0.5 77
2019-04-18 16:00:00 11.4 6 Oeste 12 Oeste 0 897.5 -1.1 63
2019-04-18 15:00:00 10.6 8 Nordeste 19 Nordeste 0 897.5 -1.6 67
2019-04-18 14:00:00 9.7 5 Norte 12 Este 0 897.7 -0.9 70
2019-04-18 13:00:00 8.6 5 Nordeste 13 Nordeste 0.8 898.6 0.2 80
2019-04-18 12:00:00 8.4 4 Sur 7 Oeste 0.6 899.1 0.7 84
2019-04-18 11:00:00 8.5 3 Sudoeste 8 Este 0.2 898.6 0.3 81
2019-04-18 10:00:00 8 6 Nordeste 10 Este 0 898.4 0.8 85
2019-04-18 09:00:00 7.8 3 Sudeste 6 Sudeste 0.6 898.4 1 88
2019-04-18 08:00:00 7.8 0 Calma 6 Norte 0.4 898.3 0.4 86
2019-04-18 07:00:00 8.3 5 Sudoeste 15 Sudeste 0.4 897.6 -0.7 79
2019-04-18 06:00:00 8.4 8 Sudeste 19 Sudeste 0 897.4 -0.8 79
2019-04-18 05:00:00 8.1 14 Sudeste 22 Sudeste 0 897.9 0.8 79
2019-04-18 04:00:00 8 11 Sur 37 Sudoeste 0.4 898.3 0.6 84
2019-04-18 03:00:00 8.4 27 Sudoeste 51 Sudoeste 1 898.2 0.8 85
2019-04-18 02:00:00 12.6 32 Sur 63 Sur 0 897.1 -0.3 70
2019-04-18 01:00:00 12 24 Sudeste 48 Sur 0.2 897.7 0.3 74
2019-04-18 00:00:00 12.8 15 Sudeste 29 Sudeste 0 897.4 0.1 68
2019-04-17 23:00:00 12.9 8 Este 21 Este 0 897.4 1.3 70
2019-04-17 22:00:00 12.4 11 Este 32 Sur 0.2 897.4 2.7 79
2019-04-17 21:00:00 12.1 12 Sudoeste 48 Sudoeste 1.4 897.3 2.8 82
2019-04-17 20:00:00 12.6 15 Sudoeste 75 Sudoeste 1.6 896.1 1 77
2019-04-17 19:00:00 19.5 17 Sur 37 Sur 0 894.7 -0.9 36
2019-04-17 18:00:00 19.5 16 Sudeste 41 Sudeste 0 894.5 -1.9 39
2019-04-17 17:00:00 18.9 18 Sudeste 37 Sudeste 0 895.1 -1.5 40
2019-04-17 16:00:00 18.8 20 Sudeste 46 Sudeste 0 895.6 -1.5 40
2019-04-17 15:00:00 18.8 27 Sur 53 Sur 0 896.4 -0.2 35
2019-04-17 14:00:00 17.9 27 Sur 42 Sur 0 896.6 0.4 32
2019-04-17 13:00:00 17.6 14 Sudeste 64 Sudeste 0 897.1 0.6 32
2019-04-17 12:00:00 16.8 29 Sudeste 59 Sudeste 0 896.6 -0.1 30
2019-04-17 11:00:00 16.3 26 Sudeste 52 Sur 0 896.2 -0.5 27
2019-04-17 10:00:00 14.8 17 Sudeste 32 Este 0 896.5 0 37
2019-04-17 09:00:00 13.5 20 Este 49 Este 0 896.7 0 50
2019-04-17 08:00:00 14.3 29 Este 47 Este 0 896.7 0 44
2019-04-17 07:00:00 14.3 15 Este 44 Nordeste 0 896.5 -0.7 43
2019-04-17 06:00:00 14 26 Este 41 Este 0 896.7 -1 48
2019-04-17 05:00:00 14.7 25 Este 38 Este 0 896.7 -2.1 42
2019-04-17 04:00:00 14.3 21 Sudeste 49 Este 0 897.2 -1.7 43
2019-04-17 03:00:00 14.1 34 Sudeste 52 Sudeste 0 897.7 -1.6 47
2019-04-17 02:00:00 14.1 27 Sudeste 47 Sudeste 0 898.8 -0.8 52
2019-04-17 01:00:00 15.2 21 Sudeste 41 Este 0 898.9 -0.9 34
2019-04-17 00:00:00 15.6 21 Sudeste 43 Sudeste 0 899.3 -0.3 32
2019-04-16 23:00:00 15.4 25 Sudeste 42 Sudeste 0 899.6 0 34
2019-04-16 22:00:00 15.2 27 Sudeste 48 Sudeste 0 899.8 -0.1 35
2019-04-16 21:00:00 15.2 17 Sudeste 39 Sudeste 0 899.6 -0.7 35
2019-04-16 20:00:00 16.5 24 Sudeste 41 Sudeste 0 899.6 -1.1 35
2019-04-16 19:00:00 17.5 17 Sudeste 30 Este 0 899.9 -1.4 33
2019-04-16 18:00:00 18.7 6 Sur 21 Sur 0 900.3 -1.5 30
2019-04-16 17:00:00 18.9 8 Sudeste 21 Sur 0 900.7 -1.6 30
2019-04-16 16:00:00 18.6 10 Oeste 19 Oeste 0 901.3 -1.6 36
2019-04-16 15:00:00 17.4 11 Oeste 20 Oeste 0 901.8 -1.4 40
2019-04-16 14:00:00 16 6 Noroeste 15 Oeste 0 902.3 -1 43
2019-04-16 13:00:00 14.5 6 Oeste 17 Oeste 0 902.9 -0.6 43
2019-04-16 12:00:00 14 4 Noroeste 12 Sudoeste 0 903.2 -0.5 47
2019-04-16 11:00:00 12.1 4 Este 12 Este 0 903.3 -0.4 52
2019-04-16 10:00:00 10.1 9 Este 14 Este 0.2 903.5 0.2 64
2019-04-16 09:00:00 7.5 7 Este 12 Este 0 903.7 0.1 80
2019-04-16 08:00:00 5.6 3 Este 6 Sudeste 0 903.7 0.2 90
2019-04-16 07:00:00 5.5 7 Sudeste 16 Sudeste 0 903.3 -0.2 91
2019-04-16 06:00:00 7 6 Oeste 7 Oeste 0 903.6 0.5 87
2019-04-16 05:00:00 6.7 6 Sudoeste 13 Sudoeste 0 903.5 0.2 88
2019-04-16 04:00:00 7 8 Sudoeste 10 Sudoeste 0 903.5 0.2 88
2019-04-16 03:00:00 7.8 4 Oeste 13 Noroeste 0 903.1 0.3 86
2019-04-16 02:00:00 8.5 9 Oeste 16 Oeste 0 903.3 0.9 83
2019-04-16 01:00:00 8.8 5 Sudoeste 12 Sur 0 903.3 1.3 83
2019-04-16 00:00:00 8.5 8 Sur 11 Sur 0 902.8 1.5 84
2019-04-15 23:00:00 9.1 4 Oeste 14 Sudeste 0 902.4 1.4 78
2019-04-15 22:00:00 8.9 10 Sur 19 Sudoeste 0.4 902 2.6 83
2019-04-15 21:00:00 10.1 11 Sudoeste 34 Sudoeste 0 901.3 3.8 67
2019-04-15 20:00:00 10.8 28 Oeste 51 Oeste 0 901 4.2 67
2019-04-15 19:00:00 13.7 31 Oeste 52 Oeste 0 899.4 2.7 57
2019-04-15 18:00:00 17.5 28 Oeste 53 Sudoeste 0 897.5 0.3 44
2019-04-15 17:00:00 20.4 44 Sudoeste 61 Sudoeste 0 896.8 -0.9 30
2019-04-15 16:00:00 20.4 28 Sudoeste 53 Sudoeste 0 896.7 -1.2 39
2019-04-15 15:00:00 19.1 30 Sudoeste 52 Sudoeste 0 897.2 -1.1 46
2019-04-15 14:00:00 18 22 Sur 43 Sur 0 897.7 -0.8 55
2019-04-15 13:00:00 17 25 Sudoeste 47 Sur 0 897.9 -0.3 59
2019-04-15 12:00:00 16.6 12 Sur 30 Sur 0 898.3 -0.4 60
2019-04-15 11:00:00 15.6 17 Sudoeste 25 Sudoeste 0 898.5 -0.7 64
2019-04-15 10:00:00 15 10 Sur 21 Sudeste 0 898.2 -0.7 71
2019-04-15 09:00:00 11.9 4 Este 10 Este 0 898.7 -0.4 77
2019-04-15 08:00:00 10.3 6 Este 8 Nordeste 0 899.2 0 81
2019-04-15 07:00:00 9.9 6 Este 10 Este 0 898.9 -1.1 81
2019-04-15 06:00:00 9.2 7 Este 12 Sudoeste 0 899.1 -1.5 85
2019-04-15 05:00:00 10.1 4 Nordeste 10 Este 0 899.2 -2 79
2019-04-15 04:00:00 10.7 2 Sur 9 Oeste 0 900 -1.7 79
2019-04-15 03:00:00 11.7 5 Este 14 Este 0 900.6 -1.4 75
2019-04-15 02:00:00 12 11 Este 15 Nordeste 0 901.2 -0.8 73
2019-04-15 01:00:00 12.3 5 Este 13 Nordeste 0 901.7 -0.5 74
2019-04-15 00:00:00 11.9 6 Este 9 Este 0 902 -0.1 74
2019-04-14 23:00:00 13.4 6 Este 19 Sudeste 0 902 0.1 70
2019-04-14 22:00:00 15 8 Este 14 Este 0 902.2 0.2 64
2019-04-14 21:00:00 16.2 3 Oeste 9 Norte 0 902.1 0.1 59
2019-04-14 20:00:00 17.3 5 Noroeste 12 Noroeste 0 901.9 -0.6 55
2019-04-14 19:00:00 18.4 7 Oeste 18 Oeste 0 902 -1.1 52
2019-04-14 18:00:00 18.6 6 Oeste 19 Oeste 0 902 -1.4 52
2019-04-14 17:00:00 18.6 7 Oeste 22 Oeste 0 902.5 -1.1 52
2019-04-14 16:00:00 18.1 10 Oeste 23 Sudoeste 0 903.1 -0.8 53
2019-04-14 15:00:00 17.1 10 Oeste 21 Sudoeste 0 903.4 -0.7 56
2019-04-14 14:00:00 16.3 10 Sudoeste 21 Oeste 0 903.6 -0.4 63
2019-04-14 13:00:00 14.2 10 Sudoeste 17 Oeste 0 903.9 0.3 72
2019-04-14 12:00:00 12.9 7 Oeste 12 Oeste 0 904.1 0.3 79
2019-04-14 11:00:00 11.8 10 Sudoeste 15 Sudoeste 0 904 0.2 86
2019-04-14 10:00:00 10.9 7 Sudeste 11 Sudeste 0 903.6 0.1 89
2019-04-14 09:00:00 9.9 7 Sudeste 14 Sudeste 0 903.8 0.2 92
2019-04-14 08:00:00 10 8 Sudeste 10 Sudeste 0 903.8 -0.4 88
2019-04-14 07:00:00 10.3 0 Calma 11 Sur 0 903.5 -0.9 84
2019-04-14 06:00:00 10.7 6 Sur 15 Sudoeste 0 903.6 -1 78
2019-04-14 05:00:00 10.6 6 Sudoeste 14 Sudoeste 0 904.2 -0.3 72
2019-04-14 04:00:00 10.7 9 Sudoeste 13 Sudoeste 0 904.4 -0.1 71
2019-04-14 03:00:00 10.4 9 Sudoeste 13 Sudoeste 0 904.6 0.2 67
2019-04-14 02:00:00 9.8 9 Sur 14 Sur 0 904.5 0 61
2019-04-14 01:00:00 8.7 7 Sur 10 Sudeste 0 904.5 0.4 48
2019-04-14 00:00:00 9.8 6 Nordeste 8 Este 0 904.4 0.8 41
2019-04-13 23:00:00 11.3 5 Este 10 Sudeste 0 904.5 1.1 37
2019-04-13 22:00:00 13.6 6 Sudeste 12 Sudeste 0 904.1 1 30
2019-04-13 21:00:00 15 3 Oeste 10 Oeste 0 903.6 0.3 21
2019-04-13 20:00:00 17 8 Oeste 14 Oeste 0 903.4 0 20
2019-04-13 19:00:00 17.9 8 Oeste 20 Oeste 0 903.1 -0.6 16
2019-04-13 18:00:00 17.7 6 Oeste 18 Oeste 0 903.3 -0.6 19
2019-04-13 17:00:00 17.4 8 Oeste 21 Oeste 0 903.4 -0.7 16
2019-04-13 16:00:00 17 6 Oeste 19 Oeste 0 903.7 -0.9 24
2019-04-13 15:00:00 16.6 8 Oeste 18 Oeste 0 903.9 -1.2 24
2019-04-13 14:00:00 15.3 8 Norte 18 Nordeste 0 904.1 -1.2 25
2019-04-13 13:00:00 14.6 6 Norte 18 Nordeste 0 904.6 -0.2 31
2019-04-13 12:00:00 13.2 6 Nordeste 15 Nordeste 0 905.1 0.3 32
2019-04-13 11:00:00 11.9 6 Norte 14 Nordeste 0 905.3 0.8 36
2019-04-13 10:00:00 10.3 6 Nordeste 12 Este 0 904.8 0.8 46
2019-04-13 09:00:00 6.1 8 Este 13 Este 0 904.8 1.1 52
2019-04-13 08:00:00 3.6 7 Nordeste 13 Este 0 904.5 0.7 60
2019-04-13 07:00:00 4 8 Nordeste 12 Este 0 904 0.3 60
2019-04-13 06:00:00 4.2 7 Este 14 Este 0 903.7 -0.6 59
2019-04-13 05:00:00 4.3 8 Nordeste 12 Este 0 903.8 -0.7 61
2019-04-13 04:00:00 4.6 7 Nordeste 13 Este 0 903.7 -0.7 61
2019-04-13 03:00:00 5 7 Este 13 Este 0 904.3 -0.3 62
2019-04-13 02:00:00 5.2 6 Este 16 Nordeste 0 904.5 0.2 63
2019-04-13 01:00:00 5.5 8 Nordeste 15 Este 0 904.4 0.6 64
2019-04-13 00:00:00 6.8 8 Este 16 Este 0 904.6 1.4 58
2019-04-12 23:00:00 7.9 10 Este 14 Este 0 904.3 1.1 57
2019-04-12 22:00:00 9.9 5 Nordeste 9 Nordeste 0 903.8 0.6 49
2019-04-12 21:00:00 11 4 Norte 13 Noroeste 0 903.2 0 43
2019-04-12 20:00:00 12.4 4 Noroeste 15 Noroeste 0 903.2 0 42
2019-04-12 19:00:00 13.1 8 Noroeste 19 Noroeste 0 903.2 -0.7 40
2019-04-12 18:00:00 13.3 10 Oeste 23 Noroeste 0 903.2 -1.3 41
2019-04-12 17:00:00 12.9 9 Noroeste 21 Noroeste 0 903.2 -1.5 45
2019-04-12 16:00:00 11.7 8 Noroeste 18 Norte 0 903.9 -0.8 47
2019-04-12 15:00:00 11.1 9 Noroeste 22 Norte 0 904.5 -0.3 45
2019-04-12 14:00:00 10.2 9 Norte 21 Noroeste 0 904.7 0 51
2019-04-12 13:00:00 9.6 8 Noroeste 19 Noroeste 0 904.7 0.1 58
2019-04-12 12:00:00 8.6 6 Noroeste 15 Oeste 0 904.8 0.4 64
2019-04-12 11:00:00 6.7 3 Oeste 10 Sudoeste 0 904.7 0.4 71
2019-04-12 10:00:00 4.5 3 Sur 9 Oeste 0 904.6 0.5 81
2019-04-12 09:00:00 3.2 4 Sudeste 8 Sudeste 0 904.4 0.5 82
2019-04-12 08:00:00 0.7 7 Sudeste 8 Sudeste 0 904.3 0.5 87
2019-04-12 07:00:00 0.7 3 Sur 10 Sur 0 904.1 0.4 91
2019-04-12 06:00:00 0.9 6 Sur 9 Sur 0 903.9 -0.3 85
2019-04-12 05:00:00 1.4 5 Oeste 8 Oeste 0 903.8 -0.6 83
2019-04-12 04:00:00 2.3 5 Nordeste 13 Nordeste 0 903.7 -0.8 82
2019-04-12 03:00:00 3.1 4 Este 12 Este 0 904.2 -0.3 77
2019-04-12 02:00:00 4.1 9 Este 17 Este 0 904.4 0 73
2019-04-12 01:00:00 4.8 11 Este 16 Este 0 904.5 0.3 71
2019-04-12 00:00:00 5.3 9 Este 15 Este 0 904.5 0.8 71
2019-04-11 23:00:00 6.2 10 Este 16 Nordeste 0 904.4 1 67
2019-04-11 22:00:00 7.3 5 Nordeste 12 Norte 0 904.2 0.7 59
2019-04-11 21:00:00 8.6 8 Norte 19 Norte 0 903.7 0.1 54
2019-04-11 20:00:00 9.9 6 Noroeste 19 Noroeste 0 903.4 -0.2 50
2019-04-11 19:00:00 9.7 8 Norte 20 Noroeste 0 903.5 -0.4 49
2019-04-11 18:00:00 9.9 10 Norte 22 Noroeste 0 903.6 -0.7 49
2019-04-11 17:00:00 10.6 10 Noroeste 28 Noroeste 0 903.6 -0.8 47
2019-04-11 16:00:00 10.8 8 Noroeste 24 Noroeste 0 903.9 -0.9 53
2019-04-11 15:00:00 8.9 8 Noroeste 17 Noroeste 0 904.3 -0.5 59
2019-04-11 14:00:00 8.6 8 Norte 18 Norte 0 904.4 -0.3 58
2019-04-11 13:00:00 7.7 6 Norte 19 Nordeste 0 904.8 0.2 64
2019-04-11 12:00:00 6.7 5 Norte 17 Nordeste 0 904.8 0.4 69
2019-04-11 11:00:00 5 4 Este 8 Este 0 904.7 0.6 86
2019-04-11 10:00:00 2.4 3 Sudoeste 7 Sudoeste 0 904.6 0.9 99
2019-04-11 09:00:00 1.2 4 Sudeste 9 Sudoeste 0 904.4 0.8 98
2019-04-11 08:00:00 1.2 4 Sur 11 Sudoeste 0 904.1 0.6 98
2019-04-11 07:00:00 0.9 3 Oeste 8 Sur 0 903.7 0.7 95
2019-04-11 06:00:00 1.6 0 Calma 6 Este 0 903.6 0.5 93
2019-04-11 05:00:00 2.5 5 Norte 8 Noroeste 0 903.5 0.4 91
2019-04-11 04:00:00 3 4 Nordeste 11 Norte 0 903 -0.1 90
2019-04-11 03:00:00 3.8 8 Nordeste 12 Norte 0 903.1 0.1 86
2019-04-11 02:00:00 5 4 Norte 13 Norte 0 903.1 0.5 83
2019-04-11 01:00:00 4.9 4 Oeste 8 Sudoeste 0 903.1 1.2 94
2019-04-11 00:00:00 4.9 5 Sudoeste 13 Oeste 0 903 2.3 93
2019-04-10 23:00:00 5.2 3 Oeste 12 Sudoeste 0 902.6 2.4 91
2019-04-10 22:00:00 5.3 10 Sudoeste 17 Sudoeste 0 901.9 2.1 89
2019-04-10 21:00:00 7.2 4 Norte 14 Noroeste 0 900.7 1.2 72
2019-04-10 20:00:00 8.5 8 Norte 19 Norte 0 900.2 0.9 62
2019-04-10 19:00:00 8.4 10 Noroeste 22 Norte 0 899.8 0.5 63
2019-04-10 18:00:00 8.3 14 Noroeste 26 Noroeste 0 899.5 -0.1 67
2019-04-10 17:00:00 8.1 21 Noroeste 37 Noroeste 0 899.3 -0.6 65
2019-04-10 16:00:00 8.3 11 Norte 33 Noroeste 0 899.3 -1 71
2019-04-10 15:00:00 6.5 5 Noroeste 23 Noroeste 0.4 899.6 -0.6 87
2019-04-10 14:00:00 5.9 9 Oeste 26 Oeste 0.2 899.9 -0.4 89
2019-04-10 13:00:00 5.2 15 Oeste 27 Oeste 0.6 900.3 0.8 87
2019-04-10 12:00:00 4 8 Noroeste 23 Oeste 0.8 900.2 0.9 91
2019-04-10 11:00:00 3.5 13 Oeste 39 Oeste 0.2 900.3 1.3 91
2019-04-10 10:00:00 4 19 Oeste 40 Oeste 0 899.5 0.7 92
2019-04-10 09:00:00 3.8 18 Oeste 30 Oeste 0.2 899.3 0.4 93
2019-04-10 08:00:00 3.7 18 Oeste 27 Oeste 0 899 0.1 92
2019-04-10 07:00:00 3.8 13 Oeste 25 Sudoeste 0 898.8 -0.1 91
2019-04-10 06:00:00 3.9 19 Oeste 32 Oeste 0 898.9 -0.1 90
2019-04-10 05:00:00 3.8 19 Oeste 32 Oeste 0 898.9 -0.2 91
2019-04-10 04:00:00 3.8 20 Oeste 35 Oeste 0 898.9 -0.2 92
2019-04-10 03:00:00 4 18 Oeste 30 Oeste 0 899 -0.2 93
2019-04-10 02:00:00 4.4 20 Oeste 31 Oeste 0.4 899.1 -0.1 92
2019-04-10 01:00:00 5 15 Oeste 23 Oeste 0 899.1 0.5 89
2019-04-10 00:00:00 5.1 16 Oeste 31 Oeste 0 899.2 1.2 86
2019-04-09 23:00:00 5.7 23 Oeste 33 Oeste 0 899.2 1.6 80
2019-04-09 22:00:00 5.9 17 Oeste 28 Oeste 0 898.6 1.5 81
2019-04-09 21:00:00 6.3 21 Oeste 33 Oeste 0.2 898 0.9 80
2019-04-09 20:00:00 5.6 18 Sudoeste 46 Oeste 0.6 897.6 0.3 85
2019-04-09 19:00:00 8.4 14 Oeste 36 Oeste 0 897.1 -0.8 59
2019-04-09 18:00:00 8.8 21 Oeste 54 Oeste 0.4 897.1 -0.8 57
2019-04-09 17:00:00 8.4 18 Oeste 41 Oeste 0 897.3 -0.3 61
2019-04-09 16:00:00 5.7 14 Oeste 41 Oeste 0 897.9 0.5 78
2019-04-09 15:00:00 5.1 33 Oeste 47 Sudoeste 0 897.9 0.5 83
2019-04-09 14:00:00 5 27 Sudoeste 60 Oeste 0.4 897.6 0 88
2019-04-09 13:00:00 6.4 25 Sudoeste 38 Sudoeste 0.8 897.4 -0.5 85
2019-04-09 12:00:00 7.5 15 Sudoeste 25 Sudoeste 0 897.4 -0.6 69
2019-04-09 11:00:00 6.3 14 Sudoeste 25 Sudoeste 0.2 897.6 -0.3 73
2019-04-09 10:00:00 6.3 13 Sudoeste 20 Sudoeste 0 897.9 0 67
2019-04-09 09:00:00 5.5 12 Sudoeste 18 Sudoeste 0 898 0.1 70
2019-04-09 08:00:00 4.7 7 Sur 18 Sudoeste 0 897.9 -0.3 75
2019-04-09 07:00:00 4.4 14 Sudoeste 21 Sudoeste 0 897.9 -0.5 76
2019-04-09 06:00:00 4.5 10 Sudoeste 19 Sudoeste 0 897.9 -0.9 79
2019-04-09 05:00:00 4.9 10 Sudoeste 14 Sudoeste 0 898.2 -0.6 80
2019-04-09 04:00:00 4.9 10 Sudoeste 14 Sudoeste 0 898.4 -0.4 80
2019-04-09 03:00:00 5 10 Sudoeste 21 Sudoeste 0 898.8 0.1 80
2019-04-09 02:00:00 5.4 14 Sudoeste 22 Sudoeste 0 898.8 0 79
2019-04-09 01:00:00 5 12 Sudoeste 20 Sudoeste 0 898.8 0 82
2019-04-09 00:00:00 4.5 10 Sudeste 19 Sur 0 898.7 0.9 84
2019-04-08 23:00:00 5.1 14 Sur 29 Sudoeste 0.2 898.8 1.7 86
2019-04-08 22:00:00 5.4 23 Oeste 41 Oeste 0 898.8 1.9 85
2019-04-08 21:00:00 7.8 25 Oeste 48 Oeste 0 897.8 0.6 72
2019-04-08 20:00:00 10.6 14 Oeste 31 Oeste 0 897.1 -0.3 47
2019-04-08 19:00:00 11.4 16 Noroeste 30 Noroeste 0 896.9 -0.8 44
2019-04-08 18:00:00 11.2 15 Oeste 30 Oeste 0 897.2 -0.9 55
2019-04-08 17:00:00 11.7 10 Oeste 24 Oeste 0 897.4 -1.2 55
2019-04-08 16:00:00 11.8 13 Oeste 28 Oeste 0 897.7 -1.1 57
2019-04-08 15:00:00 11.2 14 Oeste 23 Oeste 0 898.1 -0.6 55
2019-04-08 14:00:00 10 9 Oeste 24 Oeste 0 898.6 0.4 70
2019-04-08 13:00:00 8.9 14 Sudoeste 28 Oeste 0.2 898.8 0.7 78
2019-04-08 12:00:00 7.4 21 Oeste 33 Oeste 0 898.7 0.8 84
2019-04-08 11:00:00 7.2 23 Oeste 32 Sudoeste 0.2 898.2 1 92
2019-04-08 10:00:00 6.5 17 Oeste 26 Oeste 1 898.1 1.5 94
2019-04-08 09:00:00 6.4 16 Sudoeste 32 Sudoeste 1.4 897.9 1.3 95
2019-04-08 08:00:00 6.8 8 Sudoeste 14 Sur 0.2 897.2 0.6 89
2019-04-08 07:00:00 6.4 3 Este 7 Este 0.6 896.6 -0.2 91
2019-04-08 06:00:00 6.3 6 Este 10 Este 1 896.6 -0.3 91
2019-04-08 05:00:00 6.6 6 Nordeste 9 Sudeste 0.2 896.6 -0.4 85
2019-04-08 04:00:00 6.9 2 Sudoeste 4 Sudoeste 0 896.8 -0.4 82
2019-04-08 03:00:00 7.5 2 Este 14 Sur 0 896.9 -0.6 80
2019-04-08 02:00:00 8 12 Sur 19 Sudoeste 0 897 -0.6 76
2019-04-08 01:00:00 7.5 9 Sudoeste 25 Sudoeste 0 897.2 -0.3 84
2019-04-08 00:00:00 7.3 8 Sudoeste 15 Sudoeste 0.2 897.5 0 84
2019-04-07 23:00:00 6.6 8 Sur 14 Sur 0.4 897.6 -0.3 88
2019-04-07 22:00:00 5.7 8 Sudeste 14 Este 0.4 897.5 -0.2 89
2019-04-07 21:00:00 4.8 7 Este 11 Sudeste 0.4 897.5 -0.1 88
2019-04-07 20:00:00 5.1 6 Sur 12 Sur 1.2 897.9 1 87
2019-04-07 19:00:00 5.2 10 Sur 21 Sudoeste 1.2 897.7 0.9 82
2019-04-07 18:00:00 6.2 11 Sudoeste 32 Sudoeste 0.4 897.6 0.6 76
2019-04-07 17:00:00 8.8 14 Sudoeste 25 Sudoeste 0 896.9 0 51
2019-04-07 16:00:00 9.3 13 Sudoeste 30 Sudoeste 0 896.8 0 49
2019-04-07 15:00:00 9.3 19 Oeste 30 Sudoeste 0 897 0.3 50
2019-04-07 14:00:00 7.9 14 Sudoeste 25 Oeste 0 896.9 0.5 55
2019-04-07 13:00:00 7 15 Oeste 26 Oeste 0 896.8 0.9 61
2019-04-07 12:00:00 5.3 13 Sudoeste 29 Oeste 0 896.7 1.3 73
2019-04-07 11:00:00 3.8 14 Oeste 28 Oeste 0 896.4 1.9 81
2019-04-07 10:00:00 2.4 14 Oeste 22 Oeste 0 895.9 2.2 91
2019-04-07 09:00:00 2 11 Oeste 20 Oeste 0 895.4 2.5 91
2019-04-07 08:00:00 1.7 13 Oeste 28 Oeste 0 894.5 2.3 91
2019-04-07 07:00:00 1.8 14 Oeste 26 Oeste 0 893.7 2 92
2019-04-07 06:00:00 1.9 16 Oeste 28 Oeste 0 892.9 1.2 93
2019-04-07 05:00:00 1.5 19 Oeste 28 Oeste 0.8 892.2 0.6 97
2019-04-07 04:00:00 0.6 13 Sudoeste 35 Oeste 0.2 891.7 0.1 94
2019-04-07 03:00:00 2.6 21 Oeste 33 Oeste 0 891.7 0.3 86
2019-04-07 02:00:00 2.7 18 Sudoeste 28 Sudoeste 0 891.6 0.4 84
2019-04-07 01:00:00 2.3 19 Sudoeste 31 Sudoeste 0 891.6 0.8 87
2019-04-07 00:00:00 2.6 26 Oeste 37 Sudoeste 0 891.4 1.6 86
2019-04-06 23:00:00 3 18 Sudoeste 29 Sudoeste 0 891.2 2.1 82
2019-04-06 22:00:00 3.2 22 Sudoeste 40 Sudoeste 0 890.8 2.4 81
2019-04-06 21:00:00 4.4 12 Oeste 45 Sudoeste 0 889.8 1.4 75
2019-04-06 20:00:00 4.9 36 Sudoeste 49 Oeste 0 889.1 1.5 71
2019-04-06 19:00:00 4.8 31 Sudoeste 46 Sudoeste 0.8 888.4 1.1 77
2019-04-06 18:00:00 5.3 30 Sudoeste 64 Oeste 0 888.4 1 74
2019-04-06 17:00:00 5.9 39 Sudoeste 70 Oeste 0 887.6 0 69
2019-04-06 16:00:00 7.3 40 Oeste 61 Oeste 0 887.3 -0.7 58
2019-04-06 15:00:00 6.1 42 Oeste 64 Oeste 0 887.4 -0.6 61
2019-04-06 14:00:00 5.4 32 Oeste 55 Oeste 0.2 887.6 -0.3 71
2019-04-06 13:00:00 4.4 27 Oeste 46 Sudoeste 0 888 0.4 71
2019-04-06 12:00:00 4.7 31 Sudoeste 53 Sudoeste 0 888 0.5 69
2019-04-06 11:00:00 3.9 27 Oeste 37 Oeste 0 887.9 0.3 74
2019-04-06 10:00:00 3.4 17 Sudoeste 28 Sudoeste 0 887.6 0.1 76
2019-04-06 09:00:00 2.2 12 Sur 18 Sur 0 887.5 0.1 82
2019-04-06 08:00:00 0.9 12 Sur 21 Sudoeste 0 887.6 0.2 91
2019-04-06 07:00:00 1.5 11 Sudoeste 25 Sudoeste 0 887.5 -0.1 83
2019-04-06 06:00:00 1.4 19 Sudoeste 28 Sudoeste 0 887.4 -0.2 86
2019-04-06 05:00:00 1.4 12 Sudoeste 25 Sudoeste 0 887.4 -0.5 89
2019-04-06 04:00:00 1.5 14 Oeste 23 Sudoeste 0.2 887.6 0.1 91
2019-04-06 03:00:00 1.4 17 Sudoeste 26 Sudoeste 0 887.6 0.3 93
2019-04-06 02:00:00 1.4 20 Oeste 40 Oeste 0.4 887.9 0.7 90
2019-04-06 01:00:00 2 15 Oeste 23 Oeste 0.4 887.5 0.9 89
2019-04-06 00:00:00 1.6 6 Sur 11 Sudeste 0.2 887.3 1.7 92
2019-04-05 23:00:00 0.9 6 Sudeste 35 Oeste 0.8 887.2 1.7 94
2019-04-05 22:00:00 1.5 10 Sur 15 Sudeste 0.2 886.6 1.2 87
2019-04-05 21:00:00 1.4 12 Sudeste 17 Sudeste 0.4 885.6 0.4 88
2019-04-05 20:00:00 1.9 7 Este 14 Sudeste 1 885.5 1.2 90
2019-04-05 19:00:00 0.9 6 Sudeste 16 Sudoeste 0.4 885.4 1 95
2019-04-05 18:00:00 1 18 Sudoeste 36 Sudoeste 0 885.2 0.3 89
2019-04-05 17:00:00 3.9 7 Sur 15 Oeste 0 884.3 -1.6 73
2019-04-05 16:00:00 4.2 5 Sudoeste 12 Sur 2.8 884.4 -0.7 73
2019-04-05 15:00:00 1.7 8 Sudeste 13 Sudoeste 2.2 884.9 0.4 92
2019-04-05 14:00:00 0.4 7 Sudoeste 30 Oeste 0.4 885.9 1.3 95
2019-04-05 13:00:00 1.7 18 Oeste 31 Oeste 0 885.1 1.4 88
2019-04-05 12:00:00 4.2 6 Noroeste 20 Oeste 0 884.5 0.9 79
2019-04-05 11:00:00 3.2 17 Oeste 33 Oeste 0 884.6 0.9 86
2019-04-05 10:00:00 6.3 13 Sudoeste 26 Sur 0 883.7 0.2 60
2019-04-05 09:00:00 5.5 13 Sudoeste 23 Sudoeste 0 883.6 -0.3 59
2019-04-05 08:00:00 5.4 14 Sudoeste 33 Sur 0 883.7 -0.3 62
2019-04-05 07:00:00 5.5 9 Sudoeste 19 Sudoeste 0 883.5 -0.7 65
2019-04-05 06:00:00 5.1 8 Oeste 15 Sudoeste 0 883.9 -1 73
2019-04-05 05:00:00 5.4 7 Sudoeste 28 Sudoeste 0 884 -1.6 71
2019-04-05 04:00:00 4.7 3 Sudeste 8 Este 0 884.2 -2.1 71
2019-04-05 03:00:00 4 3 Sudeste 9 Sudoeste 0 884.9 -1.4 78
2019-04-05 02:00:00 3.6 8 Sudoeste 26 Sudoeste 0.2 885.6 -1.1 81
2019-04-05 01:00:00 4.6 14 Sudoeste 30 Sur 0 886.3 -0.6 72
2019-04-05 00:00:00 6.2 4 Oeste 10 Norte 0 886.3 -0.4 50
2019-04-04 23:00:00 6.6 4 Norte 15 Oeste 0 886.7 0.2 46
2019-04-04 22:00:00 7.4 4 Noroeste 17 Noroeste 0 886.9 0.3 39
2019-04-04 21:00:00 8 12 Noroeste 23 Noroeste 0 886.7 -0.2 35
2019-04-04 20:00:00 9.8 14 Oeste 23 Oeste 0 886.5 -0.7 28
2019-04-04 19:00:00 10.4 10 Sur 24 Oeste 0 886.6 -1.6 28
2019-04-04 18:00:00 10.8 19 Sudoeste 34 Sudoeste 0 886.9 -2.3 26
2019-04-04 17:00:00 11.2 14 Oeste 25 Oeste 0 887.2 -2.9 25
2019-04-04 16:00:00 10.6 16 Sudoeste 31 Sudoeste 0 888.2 -2.6 28
2019-04-04 15:00:00 9.4 12 Oeste 24 Sudoeste 0 889.2 -2 28
2019-04-04 14:00:00 7.9 15 Oeste 26 Sudoeste 0 890.1 -1.5 33
2019-04-04 13:00:00 6.3 8 Sudoeste 19 Sudoeste 0 890.8 -0.5 41
2019-04-04 12:00:00 4.6 6 Oeste 15 Oeste 0 891.2 0.1 42
2019-04-04 11:00:00 3.3 5 Sudoeste 17 Oeste 0 891.6 1 52
2019-04-04 10:00:00 1.6 5 Sudoeste 12 Sudoeste 0 891.3 0.8 65
2019-04-04 09:00:00 -0.9 8 Sur 14 Sur 0 891.1 0.5 74
2019-04-04 08:00:00 -2.8 11 Sudeste 13 Sudeste 0 890.6 -0.2 79
2019-04-04 07:00:00 -3.5 8 Sur 10 Sur 0 890.5 -0.5 81
2019-04-04 06:00:00 -3.1 8 Sur 10 Sur 0 890.6 -0.7 79
2019-04-04 05:00:00 -2.7 6 Sur 14 Sudoeste 0 890.8 -0.8 77
2019-04-04 04:00:00 -1.9 9 Sudoeste 13 Sudoeste 0 891 -0.9 73
2019-04-04 03:00:00 -0.9 11 Sudoeste 13 Sudoeste 0 891.3 -0.8 66
2019-04-04 02:00:00 0.5 4 Nordeste 16 Noroeste 0 891.6 -0.2 55
2019-04-04 01:00:00 1.3 7 Norte 18 Noroeste 0 891.9 0.5 52
2019-04-04 00:00:00 2.5 4 Oeste 15 Noroeste 0 892.1 1.2 50
2019-04-03 23:00:00 4.2 7 Noroeste 22 Noroeste 0 891.8 1.1 47
2019-04-03 22:00:00 5.5 11 Noroeste 22 Noroeste 0 891.4 0.6 43
2019-04-03 21:00:00 6.2 10 Noroeste 33 Noroeste 0 890.9 0 44
2019-04-03 20:00:00 7.5 20 Noroeste 37 Noroeste 0 890.7 -0.7 35
2019-04-03 19:00:00 8.8 20 Noroeste 47 Noroeste 0 890.8 -0.9 30
2019-04-03 18:00:00 10 22 Noroeste 46 Noroeste 0 890.9 -1.6 27
2019-04-03 17:00:00 8.4 23 Oeste 42 Noroeste 0 891.4 -1.9 36
2019-04-03 16:00:00 9.2 18 Oeste 35 Noroeste 0 891.7 -2.2 37
2019-04-03 15:00:00 8.3 13 Oeste 28 Oeste 0 892.5 -- 46
2019-04-03 14:00:00 6.7 14 Oeste 25 Oeste 0 893.3 -1.2 60
2019-04-03 13:00:00 5 15 Noroeste -- -- -- 893.9 -0.8 68
2019-04-03 12:00:00 -- -- -- -- -- -- -- -- --
2019-04-03 11:00:00 5 6 Oeste 19 Oeste 0 894.5 -0.3 72
2019-04-03 10:00:00 4.9 10 Oeste 16 Sudoeste 0 894.7 -0.5 76
2019-04-03 09:00:00 4.6 10 Sudoeste 16 Sudoeste 0 895.1 -0.5 77
2019-04-03 08:00:00 5.1 11 Sudoeste 17 Sudoeste 0 894.8 -1.6 69
2019-04-03 07:00:00 5 7 Sur 12 Sur 0 895.2 -2.1 64
2019-04-03 06:00:00 5.6 10 Sur 14 Sudoeste 0 895.6 -2.1 60
2019-04-03 05:00:00 6.4 7 Sudoeste 15 Sudoeste 0 896.4 -1.9 56
2019-04-03 04:00:00 6.9 12 Sudoeste 18 Sudoeste 0 897.3 -1.1 54
2019-04-03 03:00:00 7 11 Sudoeste 19 Sur 0 897.7 -0.9 51
2019-04-03 02:00:00 6.6 9 Sudoeste 14 Sudoeste 0 898.3 -0.4 52
2019-04-03 01:00:00 7.1 7 Sudoeste 25 Sudoeste 0 898.4 -0.3 47
2019-04-03 00:00:00 8.5 16 Sudoeste 23 Sudoeste 0 898.6 0.4 43
2019-04-02 23:00:00 9.2 10 Sudoeste 14 Sudoeste 0 898.7 0.6 42
2019-04-02 22:00:00 10.2 10 Oeste 16 Oeste 0 898.7 0.9 41
2019-04-02 21:00:00 12.2 10 Oeste 27 Oeste 0 898.2 0.1 35
2019-04-02 20:00:00 14.8 14 Oeste 35 Noroeste 0 898.1 -0.6 31
2019-04-02 19:00:00 15.8 19 Oeste 36 Oeste 0 897.8 -1.5 32
2019-04-02 18:00:00 16.6 17 Oeste 36 Oeste 0 898.1 -1.9 35
2019-04-02 17:00:00 15.9 14 Sudoeste 23 Sudoeste 0 898.7 -1.9 40
2019-04-02 16:00:00 15.3 12 Sudoeste 23 Oeste 0 899.3 -2 45
2019-04-02 15:00:00 15 14 Sudoeste 25 Sudoeste 0 900 -1.4 48
2019-04-02 14:00:00 12.6 7 Sur 19 Sudoeste 0 900.6 -0.8 59
2019-04-02 13:00:00 10.2 14 Sudoeste 19 Sudoeste 0 901.3 0.2 76
2019-04-02 12:00:00 12.2 9 Sudoeste 23 Oeste 0 901.4 0.6 59
2019-04-02 11:00:00 11.2 8 Sudoeste 14 Sudoeste 0 901.4 0.8 63
2019-04-02 10:00:00 9.2 6 Sur 12 Sur 0 901.1 0.5 69
2019-04-02 09:00:00 7.7 8 Sur 12 Sur 0 900.8 0.3 73
2019-04-02 08:00:00 7.1 10 Sudeste 12 Sudeste 0 900.6 -0.3 74
2019-04-02 07:00:00 6.6 7 Sur 11 Sudeste 0 900.6 -0.3 76
2019-04-02 06:00:00 6.8 9 Sudeste 13 Sur 0 900.5 -0.5 74
2019-04-02 05:00:00 6.5 10 Sur 12 Sudeste 0 900.9 0.1 75
2019-04-02 04:00:00 7.3 9 Sudoeste 13 Sudoeste 0 900.9 -0.1 73
2019-04-02 03:00:00 7.5 8 Sudoeste 15 Sudoeste 0 901 0.6 72
2019-04-02 02:00:00 8.7 9 Sudeste 20 Sur 0 900.8 0.5 68
2019-04-02 01:00:00 8.6 9 Sudoeste 17 Oeste 0 901 1.2 69
2019-04-02 00:00:00 9.3 4 Este 8 Este 0 900.4 1.3 66
2019-04-01 23:00:00 10.2 7 Este 14 Este 0 900.3 1.8 63
2019-04-01 22:00:00 10.7 2 Oeste 10 Oeste 0 899.8 1.6 58
2019-04-01 21:00:00 11.1 5 Sudeste 26 Sudeste 0 899.1 1 56
2019-04-01 20:00:00 11.7 19 Sudeste 26 Sudeste 0 898.5 0.4 54
2019-04-01 19:00:00 12.8 13 Sur 39 Sudoeste 0 898.2 -0.3 51
2019-04-01 18:00:00 14.5 7 Noroeste 18 Noroeste 0 898.1 -0.8 42
2019-04-01 17:00:00 15 6 Oeste 15 Noroeste 0 898.1 -1.2 43
2019-04-01 16:00:00 13.4 9 Noroeste 13 Noroeste 0 898.5 -1 49
2019-04-01 15:00:00 14.2 6 Sudoeste 13 Sudoeste 0 898.9 -0.6 48
2019-04-01 14:00:00 12.5 6 Oeste 19 Oeste 0 899.3 0.1 46
2019-04-01 13:00:00 11.6 8 Noroeste 17 Sudoeste 0 899.5 0.9 57
2019-04-01 12:00:00 12.1 5 Sudoeste 13 Sudoeste 0 899.5 1.1 61
2019-04-01 11:00:00 9.5 7 Oeste 11 Oeste 0 899.2 1.1 73
2019-04-01 10:00:00 9.5 4 Este 8 Este 0 898.6 0.5 72
2019-04-01 09:00:00 7.7 5 Este 12 Este 0 898.4 0.4 78
2019-04-01 08:00:00 7 4 Nordeste 8 Nordeste 0 898.1 0.4 81
2019-04-01 07:00:00 6.7 3 Oeste 8 Sudoeste 0 898.1 0.1 83
2019-04-01 06:00:00 6.6 6 Sudoeste 8 Sudoeste 0 898 -0.1 84
2019-04-01 05:00:00 6.9 3 Noroeste 6 Noroeste 0 897.7 -0.5 81
2019-04-01 04:00:00 7 3 Oeste 6 Oeste 0 898 -0.1 81
2019-04-01 03:00:00 7.1 2 Oeste 10 Sudoeste 0 898.1 0.2 79
2019-04-01 02:00:00 6.6 8 Sudoeste 15 Sudoeste 0 898.2 0.3 84
2019-04-01 01:00:00 7 9 Sur 21 Sudeste 0 898.1 0.7 84
2019-04-01 00:00:00 9.1 16 Sudeste 24 Sudeste 0 897.9 0.8 67
2019-03-31 23:00:00 8.9 18 Este 26 Sudeste 0 897.9 1 68
2019-03-31 22:00:00 9.5 14 Sudeste 26 Sudeste 0 897.4 0.7 67
2019-03-31 21:00:00 10 12 Sudeste 26 Sudeste 0 897.1 0.6 69
2019-03-31 20:00:00 11.4 17 Este 26 Este 0 896.9 0.3 59
2019-03-31 19:00:00 11.8 5 Noroeste 17 Norte 0 896.7 -0.2 60
2019-03-31 18:00:00 12.2 11 Norte 27 Sudeste 0 896.5 -1 58
2019-03-31 17:00:00 14.7 15 Sudeste 27 Este 0 896.6 -1.6 43
2019-03-31 16:00:00 14.1 18 Sudeste 29 Sudeste 0 896.9 -1.7 46
2019-03-31 15:00:00 15.2 12 Este 23 Este 0 897.5 -1.4 40
2019-03-31 14:00:00 14.3 11 Nordeste 29 Este 0 898.2 -0.8 43
2019-03-31 13:00:00 13.8 5 Sudeste 14 Sudeste 0 898.6 -0.1 43
2019-03-31 12:00:00 12.2 6 Oeste 12 Oeste 0 898.9 0.1 48
2019-03-31 11:00:00 9.6 7 Oeste 14 Oeste 0 899 0.5 54
2019-03-31 10:00:00 9.4 7 Sudoeste 11 Sudeste 0 898.7 0 56
2019-03-31 09:00:00 7.2 5 Sudeste 8 Este 0 898.8 -0.2 63
2019-03-31 08:00:00 6.5 4 Este 13 Sudeste 0 898.5 -1.2 63
2019-03-31 07:00:00 7.7 7 Este 14 Este 0 898.7 -1.4 58
2019-03-31 06:00:00 7 8 Nordeste 12 Este 0 899 -1.5 62
2019-03-31 05:00:00 7.8 6 Oeste 11 Este 0 899.7 -1.4 55
2019-03-31 03:00:00 10 18 Sudeste 28 Sudeste 0 900.5 -1 48
2019-03-31 01:00:00 9.9 13 Este 24 Sudeste 0 901.1 -0.6 41
2019-03-31 00:00:00 9.7 5 Este 16 Sudeste 0 901.2 -0.4 37
2019-03-30 23:00:00 11.3 10 Este 20 Sudeste 0 901.5 0.3 33
2019-03-30 22:00:00 11.6 14 Sudeste 23 Sudeste 0 901.7 0.6 33
2019-03-30 21:00:00 12.1 18 Sudeste 23 Sudeste 0 901.6 0.9 33
2019-03-30 20:00:00 12.6 14 Sudeste 20 Sudeste 0 901.2 0.3 35
2019-03-30 19:00:00 15.8 8 Sudoeste 13 Sudoeste 0 901.1 -0.3 22
2019-03-30 18:00:00 16.5 5 Oeste 15 Oeste 0 900.7 -1.4 20
2019-03-30 17:00:00 16.6 8 Noroeste 22 Oeste 0 900.9 -2 20
2019-03-30 16:00:00 17.1 5 Nordeste 21 Sur 0 901.4 -2.1 18
2019-03-30 15:00:00 16.2 10 Noroeste 23 Norte 0 902.1 -2.1 20
2019-03-30 14:00:00 16 9 Noroeste 17 Noroeste 0 902.9 -1.7 22
2019-03-30 13:00:00 15.8 8 Oeste 17 Sudoeste 0 903.5 -1.3 25
2019-03-30 12:00:00 14.9 5 Norte 12 Oeste 0 904.2 -0.4 27
2019-03-30 11:00:00 13 8 Oeste 14 Oeste 0 904.6 0 31
2019-03-30 10:00:00 12 5 Oeste 9 Noroeste 0 904.8 0.3 40
2019-03-30 09:00:00 10 4 Sudeste 8 Este 0 904.6 0 41
2019-03-30 08:00:00 6.8 5 Este 10 Este 0 904.6 0 53
2019-03-30 07:00:00 5.4 5 Este 12 Este 0 904.5 -0.4 57
2019-03-30 06:00:00 5.1 8 Sudeste 13 Sur 0 904.6 -0.3 56
2019-03-30 05:00:00 6.1 13 Sudeste 18 Sudeste 0 904.6 -0.7 54
2019-03-30 04:00:00 7.4 10 Sudeste 41 Sudeste 0 904.9 -0.5 52
2019-03-30 03:00:00 8 27 Sudeste 41 Sudeste 0 904.9 -0.6 52
2019-03-30 02:00:00 7.9 26 Sudeste 39 Sudeste 0 905.3 -0.3 54
2019-03-30 01:00:00 8.5 28 Sudeste 46 Sudeste 0 905.4 -0.4 52
2019-03-30 00:00:00 9.4 26 Sudeste 37 Sudeste 0 905.5 -0.2 44
2019-03-29 23:00:00 10 24 Sudeste 41 Sudeste 0 905.6 0.1 37
2019-03-29 22:00:00 10.4 28 Sudeste 41 Sudeste 0 905.8 0.5 39
2019-03-29 21:00:00 10.9 24 Sudeste 39 Sudeste 0 905.7 0.7 35
2019-03-29 20:00:00 11.5 22 Sudeste 32 Sudeste 0 905.5 0.6 29
2019-03-29 19:00:00 13.3 19 Sudeste 34 Sudeste 0 905.3 0 25
2019-03-29 18:00:00 14.5 23 Sudeste 36 Sudeste 0 905 -0.9 23
2019-03-29 17:00:00 15.3 18 Este 31 Sudeste 0 904.9 -1.5 22
2019-03-29 16:00:00 15.8 15 Sudeste 31 Sudeste 0 905.3 -1.5 22
2019-03-29 15:00:00 16.1 17 Sudeste 31 Sudeste 0 905.9 -1.4 24
2019-03-29 14:00:00 16 13 Este 30 Sudeste 0 906.4 -1.3 25
2019-03-29 13:00:00 15.3 14 Sur 37 Sur 0 906.8 -0.9 26
2019-03-29 12:00:00 14.4 19 Sur 41 Sudeste 0 907.3 -0.3 26
2019-03-29 11:00:00 13.3 24 Sudeste 39 Sudeste 0 907.7 0.1 28
2019-03-29 10:00:00 12 26 Sudeste 37 Sudeste 0 907.7 0.2 29
2019-03-29 09:00:00 10.9 24 Sudeste 35 Sudeste 0 907.6 0.1 30
2019-03-29 08:00:00 9 14 Sudeste 28 Sudeste 0 907.6 0.1 35
2019-03-29 07:00:00 7.7 16 Este 34 Sudeste 0 907.5 -0.1 37
2019-03-29 06:00:00 7.7 15 Sudeste 29 Sudeste 0 907.5 -0.3 39
2019-03-29 05:00:00 7.6 14 Sudeste 30 Sudeste 0 907.5 -0.7 39
2019-03-29 04:00:00 7.9 13 Sudeste 26 Sudeste 0 907.6 -0.7 34
2019-03-29 03:00:00 9.2 11 Este 23 Este 0 907.8 -0.6 31
2019-03-29 02:00:00 9.2 13 Sudeste 23 Este 0 908.2 -0.2 29
2019-03-29 01:00:00 7.7 8 Sudeste 17 Sudeste 0 908.3 -0.1 32
2019-03-29 00:00:00 7.8 3 Este 15 Este 0 908.4 0.2 35
2019-03-28 23:00:00 9 8 Este 15 Este 0 908.4 0.6 33
2019-03-28 22:00:00 10 8 Este 14 Sudeste 0 908.4 0.9 30
2019-03-28 21:00:00 11.6 6 Nordeste 19 Sudeste 0 908.2 0.7 28
2019-03-28 20:00:00 13.2 8 Sudeste 16 Sudeste 0 907.8 0.3 25
2019-03-28 19:00:00 15.6 9 Noroeste 14 Oeste 0 907.5 -0.6 23
2019-03-28 18:00:00 16.8 7 Noroeste 17 Noroeste 0 907.5 -1.1 22
2019-03-28 17:00:00 17.4 8 Oeste 17 Noroeste 0 907.5 -1.9 22
2019-03-28 16:00:00 16.8 8 Oeste 17 Noroeste 0 908.1 -1.7 22
2019-03-28 15:00:00 16.7 7 Oeste 15 Oeste 0 908.6 -1.6 24
2019-03-28 14:00:00 15.6 10 Norte 23 Norte 0 909.4 -1.1 23
2019-03-28 13:00:00 14.8 7 Norte 24 Noroeste 0 909.8 -0.5 24
2019-03-28 12:00:00 13.6 7 Noroeste 19 Noroeste 0 910.2 -0.1 26
2019-03-28 11:00:00 11.9 10 Noroeste 17 Noroeste 0 910.5 0.4 30
2019-03-28 10:00:00 9.4 6 Noroeste 12 Noroeste 0 910.3 0.5 35
2019-03-28 09:00:00 5.9 3 Sudeste 6 Sudoeste 0 910.3 0.7 44
2019-03-28 08:00:00 2.8 4 Oeste 9 Este 0 910.1 0.8 52
2019-03-28 07:00:00 2.1 7 Este 10 Nordeste 0 909.8 0.4 50
2019-03-28 06:00:00 2 4 Nordeste 7 Sur 0 909.6 0.5 55
2019-03-28 05:00:00 2.1 5 Sur 9 Sudeste 0 909.3 0.2 53
2019-03-28 04:00:00 2.4 4 Sur 10 Sur 0 909.4 0.3 53
2019-03-28 03:00:00 3.7 4 Sudoeste 9 Sudoeste 0 909.1 0.3 49
2019-03-28 02:00:00 4.8 4 Oeste 9 Sur 0 909.1 0.5 46
2019-03-28 01:00:00 5.6 3 Sudoeste 13 Sudeste 0 909.1 1 42
2019-03-28 00:00:00 6.7 13 Sur 16 Sudeste 0 908.8 1.2 39
2019-03-27 23:00:00 7.1 4 Sur 13 Sur 0 908.6 1.6 37
2019-03-27 22:00:00 8.5 12 Sudeste 18 Sudeste 0 908.1 1.4 33
2019-03-27 21:00:00 11.3 9 Nordeste 23 Nordeste 0 907.6 1.4 29
2019-03-27 20:00:00 13.4 9 Norte 19 Norte 0 907 0.8 24
2019-03-27 19:00:00 16 10 Norte 26 Nordeste 0 906.7 0 13
2019-03-27 18:00:00 17 14 Nordeste 27 Nordeste 0 906.2 -1 13
2019-03-27 17:00:00 17.1 12 Norte 26 Norte 0 906.2 -1.5 15
2019-03-27 16:00:00 17.3 10 Oeste 22 Noroeste 0 906.7 -1.6 18
2019-03-27 15:00:00 15.8 8 Noroeste 20 Noroeste 0 907.2 -1.2 20
2019-03-27 14:00:00 14.6 8 Oeste 14 Oeste 0 907.7 -0.5 22
2019-03-27 13:00:00 13.3 6 Oeste 17 Oeste 0 908.3 0.1 23
2019-03-27 12:00:00 11.4 8 Oeste 16 Oeste 0 908.4 0.6 24
2019-03-27 11:00:00 10.3 8 Oeste 13 Sudoeste 0 908.2 0.9 26
2019-03-27 10:00:00 8 5 Oeste 9 Noroeste 0 908.2 1.4 29
2019-03-27 09:00:00 4.9 2 Oeste 8 Oeste 0 907.8 1.5 33
2019-03-27 08:00:00 3 3 Este 6 Este 0 907.3 1.6 43
2019-03-27 07:00:00 1.3 3 Sudoeste 5 Oeste 0 906.8 1.2 43
2019-03-27 06:00:00 2 4 Este 7 Este 0 906.3 0.6 42
2019-03-27 05:00:00 2.2 4 Nordeste 7 Nordeste 0 905.7 0.1 39
2019-03-27 04:00:00 2.4 3 Sudeste 10 Sur 0 905.6 -0.1 34
2019-03-27 03:00:00 2.9 6 Sudoeste 11 Sudoeste 0 905.7 0.2 35
2019-03-27 02:00:00 4.9 4 Oeste 13 Sudoeste 0 905.6 0.4 32
2019-03-27 01:00:00 7.4 5 Este 14 Este 0 905.7 1.1 25
2019-03-27 00:00:00 7.4 3 Este 20 Sudeste 0 905.5 1.1 24
2019-03-26 23:00:00 10.3 13 Este 24 Este 0 905.2 1.6 21
2019-03-26 22:00:00 11.4 11 Este 23 Este 0 904.6 1.4 23
2019-03-26 21:00:00 13 12 Nordeste 31 Este 0 904.4 1.5 22
2019-03-26 20:00:00 14.2 17 Este 34 Este 0 903.6 0.9 17
2019-03-26 19:00:00 15.9 21 Este 37 Este 0 903.2 0.5 13
2019-03-26 18:00:00 17.1 22 Este 41 Este 0 902.9 0 10
2019-03-26 17:00:00 17.7 23 Este 40 Este 0 902.7 -0.8 13
2019-03-26 16:00:00 18.5 19 Este 36 Este 0 902.7 -1.2 16
2019-03-26 15:00:00 18.7 10 Este 27 Este 0 902.9 -1.7 14
2019-03-26 14:00:00 16.6 9 Noroeste 19 Noroeste 0 903.5 -1.3 26
2019-03-26 13:00:00 13.7 10 Oeste 19 Oeste 0 903.9 -1 42
2019-03-26 12:00:00 10.4 9 Oeste 16 Oeste 0 904.6 -0.2 51
2019-03-26 11:00:00 7.2 4 Oeste 10 Noroeste 0 904.8 0 58
2019-03-26 10:00:00 4.5 6 Oeste 10 Sudoeste 0 904.9 0.3 66
2019-03-26 09:00:00 2 5 Oeste 12 Sudeste 0 904.8 0.2 76
2019-03-26 08:00:00 -0.2 5 Sudeste 7 Sudeste 0 904.8 0.4 83
2019-03-26 07:00:00 -2.1 7 Sur 9 Sur 0 904.6 -0.2 87
2019-03-26 06:00:00 -1.4 4 Sudoeste 13 Sur 0 904.6 -0.4 86
2019-03-26 05:00:00 -1.3 9 Sur 13 Sur 0 904.4 -0.9 85
2019-03-26 04:00:00 -0.5 8 Sur 12 Sur 0 904.8 -0.7 83
2019-03-26 03:00:00 0.4 8 Sur 12 Sudeste 0 905 -0.5 80
2019-03-26 02:00:00 1 6 Sur 11 Sur 0 905.3 0.2 77
2019-03-26 01:00:00 2.7 6 Sudoeste 12 Sudeste 0 905.5 0.5 69
2019-03-26 00:00:00 3.9 3 Sudeste 9 Sur 0 905.5 0.6 65
2019-03-25 23:00:00 5.3 7 Sudoeste 12 Nordeste 0 905.1 0.6 59
2019-03-25 22:00:00 7.5 9 Nordeste 19 Nordeste 0 905 0.6 53
2019-03-25 21:00:00 9.1 9 Nordeste 21 Norte 0 904.9 0.8 47
2019-03-25 20:00:00 10.8 7 Norte 19 Norte 0 904.5 0.1 42
2019-03-25 19:00:00 13.4 10 Norte 28 Norte 0 904.4 -0.4 36
2019-03-25 18:00:00 15.1 17 Norte 31 Noroeste 0 904.1 -1.2 32
2019-03-25 17:00:00 16.3 12 Norte 27 Noroeste 0 904.4 -1.8 31
2019-03-25 16:00:00 16.3 11 Noroeste 30 Norte 0 904.8 -2.1 30
2019-03-25 15:00:00 16.1 13 Norte 28 Noroeste 0 905.3 -2.1 29
2019-03-25 14:00:00 15.9 13 Noroeste 24 Noroeste 0 906.2 -1.6 33
2019-03-25 13:00:00 15.6 10 Norte 24 Nordeste 0 906.9 -0.8 33
2019-03-25 12:00:00 14.2 6 Oeste 13 Norte 0 907.4 0 36
2019-03-25 11:00:00 12.1 7 Oeste 13 Oeste 0 907.8 0.5 45
2019-03-25 10:00:00 10.5 7 Oeste 11 Oeste 0 907.7 0.9 46
2019-03-25 09:00:00 8.8 3 Oeste 6 Sudoeste 0 907.4 0.8 48
2019-03-25 08:00:00 5.9 3 Sudeste 11 Noroeste 0 907.3 0.6 54
2019-03-25 07:00:00 6 3 Sudoeste 5 Oeste 0 906.8 -0.2 51
2019-03-25 06:00:00 6.7 2 Este 5 Nordeste 0 906.6 -0.5 50
2019-03-25 05:00:00 7.1 5 Oeste 16 Sudeste 0 906.7 -0.5 48
2019-03-25 04:00:00 9 8 Este 12 Este 0 907 -0.5 43
2019-03-25 03:00:00 9.7 11 Sudeste 19 Sudeste 0 907.1 -0.4 40
2019-03-25 02:00:00 10.6 14 Sudeste 29 Sudeste 0 907.2 -0.1 37
2019-03-25 01:00:00 12 14 Sudeste 39 Este 0 907.5 0.1 32
2019-03-25 00:00:00 9.1 9 Oeste 14 Sudeste 0 907.5 0.5 41